sensor_id;sensor_type;location;lat;lon;timestamp;temperature;humidity
23683;DHT22;24897;53.514;10.482;2023-04-15T00:02:39;8.40;99.90
23683;DHT22;24897;53.514;10.482;2023-04-15T00:05:24;8.50;99.90
23683;DHT22;24897;53.514;10.482;2023-04-15T00:08:08;8.40;99.90
23683;DHT22;24897;53.514;10.482;2023-04-15T00:10:52;8.50;99.90
23683;DHT22;24897;53.514;10.482;2023-04-15T00:13:37;8.50;99.90
23683;DHT22;24897;53.514;10.482;2023-04-15T00:16:21;8.50;99.90
23683;DHT22;24897;53.514;10.482;2023-04-15T00:19:05;8.50;99.90
23683;DHT22;24897;53.514;10.482;2023-04-15T00:21:50;8.50;99.90
23683;DHT22;24897;53.514;10.482;2023-04-15T00:24:34;8.50;99.90
23683;DHT22;24897;53.514;10.482;2023-04-15T00:27:19;8.50;99.90
23683;DHT22;24897;53.514;10.482;2023-04-15T00:30:04;8.50;99.90
23683;DHT22;24897;53.514;10.482;2023-04-15T00:32:48;8.40;99.90
23683;DHT22;24897;53.514;10.482;2023-04-15T00:35:32;8.40;99.90
23683;DHT22;24897;53.514;10.482;2023-04-15T00:38:17;8.40;99.90
23683;DHT22;24897;53.514;10.482;2023-04-15T00:41:02;8.40;99.90
23683;DHT22;24897;53.514;10.482;2023-04-15T00:43:47;8.40;99.90
23683;DHT22;24897;53.514;10.482;2023-04-15T00:46:33;8.50;99.90
23683;DHT22;24897;53.514;10.482;2023-04-15T00:49:18;8.40;99.90
23683;DHT22;24897;53.514;10.482;2023-04-15T00:52:03;8.40;99.90
23683;DHT22;24897;53.514;10.482;2023-04-15T00:54:48;8.50;99.90
23683;DHT22;24897;53.514;10.482;2023-04-15T00:57:32;8.50;99.90
23683;DHT22;24897;53.514;10.482;2023-04-15T01:00:16;8.50;99.90
23683;DHT22;24897;53.514;10.482;2023-04-15T01:03:01;8.50;99.90
23683;DHT22;24897;53.514;10.482;2023-04-15T01:05:46;8.50;99.90
23683;DHT22;24897;53.514;10.482;2023-04-15T01:08:30;8.50;99.90
23683;DHT22;24897;53.514;10.482;2023-04-15T01:11:15;8.50;99.90
23683;DHT22;24897;53.514;10.482;2023-04-15T01:14:00;8.50;99.90
23683;DHT22;24897;53.514;10.482;2023-04-15T01:16:45;8.40;99.90
23683;DHT22;24897;53.514;10.482;2023-04-15T01:19:30;8.40;99.90
23683;DHT22;24897;53.514;10.482;2023-04-15T01:22:15;8.50;99.90
23683;DHT22;24897;53.514;10.482;2023-04-15T01:25:10;8.50;99.90
23683;DHT22;24897;53.514;10.482;2023-04-15T01:27:55;8.50;99.90
23683;DHT22;24897;53.514;10.482;2023-04-15T01:30:40;8.40;99.90
23683;DHT22;24897;53.514;10.482;2023-04-15T01:33:24;8.60;99.90
23683;DHT22;24897;53.514;10.482;2023-04-15T01:36:09;8.50;99.90
23683;DHT22;24897;53.514;10.482;2023-04-15T01:38:54;8.50;99.90
23683;DHT22;24897;53.514;10.482;2023-04-15T01:41:39;8.50;99.90
23683;DHT22;24897;53.514;10.482;2023-04-15T01:44:25;8.50;99.90
23683;DHT22;24897;53.514;10.482;2023-04-15T01:47:10;8.60;99.90
23683;DHT22;24897;53.514;10.482;2023-04-15T01:49:55;8.60;99.90
23683;DHT22;24897;53.514;10.482;2023-04-15T01:52:40;8.60;99.90
23683;DHT22;24897;53.514;10.482;2023-04-15T01:55:24;8.60;99.90
23683;DHT22;24897;53.514;10.482;2023-04-15T01:58:08;8.60;99.90
23683;DHT22;24897;53.514;10.482;2023-04-15T02:00:53;8.60;99.90
23683;DHT22;24897;53.514;10.482;2023-04-15T02:03:37;8.60;99.90
23683;DHT22;24897;53.514;10.482;2023-04-15T02:06:22;8.60;99.90
23683;DHT22;24897;53.514;10.482;2023-04-15T02:09:06;8.60;99.90
23683;DHT22;24897;53.514;10.482;2023-04-15T02:11:51;8.60;99.90
23683;DHT22;24897;53.514;10.482;2023-04-15T02:14:37;8.70;99.90
23683;DHT22;24897;53.514;10.482;2023-04-15T02:17:21;8.70;99.90
23683;DHT22;24897;53.514;10.482;2023-04-15T02:20:05;8.60;99.90
23683;DHT22;24897;53.514;10.482;2023-04-15T02:22:51;8.60;99.90
23683;DHT22;24897;53.514;10.482;2023-04-15T02:25:36;8.70;99.90
23683;DHT22;24897;53.514;10.482;2023-04-15T02:28:21;8.60;99.90
23683;DHT22;24897;53.514;10.482;2023-04-15T02:31:06;8.70;99.90
23683;DHT22;24897;53.514;10.482;2023-04-15T02:33:51;8.70;99.90
23683;DHT22;24897;53.514;10.482;2023-04-15T02:36:35;8.60;99.90
23683;DHT22;24897;53.514;10.482;2023-04-15T02:39:19;8.70;99.90
23683;DHT22;24897;53.514;10.482;2023-04-15T02:42:03;8.70;99.90
23683;DHT22;24897;53.514;10.482;2023-04-15T02:44:49;8.70;99.90
23683;DHT22;24897;53.514;10.482;2023-04-15T02:47:34;8.60;99.90
23683;DHT22;24897;53.514;10.482;2023-04-15T02:50:18;8.70;99.90
23683;DHT22;24897;53.514;10.482;2023-04-15T02:53:03;8.70;99.90
23683;DHT22;24897;53.514;10.482;2023-04-15T02:55:48;8.60;99.90
23683;DHT22;24897;53.514;10.482;2023-04-15T02:58:33;8.70;99.90
23683;DHT22;24897;53.514;10.482;2023-04-15T03:01:18;8.60;99.90
23683;DHT22;24897;53.514;10.482;2023-04-15T03:04:03;8.70;99.90
23683;DHT22;24897;53.514;10.482;2023-04-15T03:06:48;8.70;99.90
23683;DHT22;24897;53.514;10.482;2023-04-15T03:09:32;8.70;99.90
23683;DHT22;24897;53.514;10.482;2023-04-15T03:12:16;8.70;99.90
23683;DHT22;24897;53.514;10.482;2023-04-15T03:15:00;8.70;99.90
23683;DHT22;24897;53.514;10.482;2023-04-15T03:17:45;8.80;99.90
23683;DHT22;24897;53.514;10.482;2023-04-15T03:20:29;8.70;99.90
23683;DHT22;24897;53.514;10.482;2023-04-15T03:23:13;8.70;99.90
23683;DHT22;24897;53.514;10.482;2023-04-15T03:26:01;8.70;99.90
23683;DHT22;24897;53.514;10.482;2023-04-15T03:28:45;8.70;99.90
23683;DHT22;24897;53.514;10.482;2023-04-15T03:31:29;8.70;99.90
23683;DHT22;24897;53.514;10.482;2023-04-15T03:34:14;8.70;99.90
23683;DHT22;24897;53.514;10.482;2023-04-15T03:36:58;8.80;99.90
23683;DHT22;24897;53.514;10.482;2023-04-15T03:39:42;8.70;99.90
23683;DHT22;24897;53.514;10.482;2023-04-15T03:42:26;8.70;99.90
23683;DHT22;24897;53.514;10.482;2023-04-15T03:45:10;8.70;99.90
23683;DHT22;24897;53.514;10.482;2023-04-15T03:47:55;8.70;99.90
23683;DHT22;24897;53.514;10.482;2023-04-15T03:50:38;8.60;99.90
23683;DHT22;24897;53.514;10.482;2023-04-15T03:53:22;8.60;99.90
23683;DHT22;24897;53.514;10.482;2023-04-15T03:56:06;8.60;99.90
23683;DHT22;24897;53.514;10.482;2023-04-15T03:58:51;8.60;99.90
23683;DHT22;24897;53.514;10.482;2023-04-15T04:01:35;8.70;99.90
23683;DHT22;24897;53.514;10.482;2023-04-15T04:04:19;8.60;99.90
23683;DHT22;24897;53.514;10.482;2023-04-15T04:07:03;8.60;99.90
23683;DHT22;24897;53.514;10.482;2023-04-15T04:09:47;8.70;99.90
23683;DHT22;24897;53.514;10.482;2023-04-15T04:12:31;8.70;99.90
23683;DHT22;24897;53.514;10.482;2023-04-15T04:15:16;8.70;99.90
23683;DHT22;24897;53.514;10.482;2023-04-15T04:18:00;8.70;99.90
23683;DHT22;24897;53.514;10.482;2023-04-15T04:20:44;8.70;99.90
23683;DHT22;24897;53.514;10.482;2023-04-15T04:23:28;8.70;99.90
23683;DHT22;24897;53.514;10.482;2023-04-15T04:26:12;8.60;99.90
23683;DHT22;24897;53.514;10.482;2023-04-15T04:28:56;8.70;99.90
23683;DHT22;24897;53.514;10.482;2023-04-15T04:31:41;8.70;99.90
23683;DHT22;24897;53.514;10.482;2023-04-15T04:34:25;8.70;99.90
23683;DHT22;24897;53.514;10.482;2023-04-15T04:37:09;8.80;99.90
23683;DHT22;24897;53.514;10.482;2023-04-15T04:39:54;8.90;99.90
23683;DHT22;24897;53.514;10.482;2023-04-15T04:42:38;8.70;99.90
23683;DHT22;24897;53.514;10.482;2023-04-15T04:45:22;8.70;99.90
23683;DHT22;24897;53.514;10.482;2023-04-15T04:48:06;8.70;99.90
23683;DHT22;24897;53.514;10.482;2023-04-15T04:50:52;8.80;99.90
23683;DHT22;24897;53.514;10.482;2023-04-15T04:53:36;8.80;99.90
23683;DHT22;24897;53.514;10.482;2023-04-15T04:56:21;8.80;99.90
23683;DHT22;24897;53.514;10.482;2023-04-15T04:59:05;8.70;99.90
23683;DHT22;24897;53.514;10.482;2023-04-15T05:01:50;8.80;99.90
23683;DHT22;24897;53.514;10.482;2023-04-15T05:04:34;8.70;99.90
23683;DHT22;24897;53.514;10.482;2023-04-15T05:07:19;8.70;99.90
23683;DHT22;24897;53.514;10.482;2023-04-15T05:10:04;8.70;99.90
23683;DHT22;24897;53.514;10.482;2023-04-15T05:12:49;8.80;99.90
23683;DHT22;24897;53.514;10.482;2023-04-15T05:15:34;8.80;99.90
23683;DHT22;24897;53.514;10.482;2023-04-15T05:18:19;8.80;99.90
23683;DHT22;24897;53.514;10.482;2023-04-15T05:21:04;8.80;99.90
23683;DHT22;24897;53.514;10.482;2023-04-15T05:23:48;8.70;99.90
23683;DHT22;24897;53.514;10.482;2023-04-15T05:26:33;8.70;99.90
23683;DHT22;24897;53.514;10.482;2023-04-15T05:29:17;8.80;99.90
23683;DHT22;24897;53.514;10.482;2023-04-15T05:32:01;8.80;99.90
23683;DHT22;24897;53.514;10.482;2023-04-15T05:34:45;8.80;99.90
23683;DHT22;24897;53.514;10.482;2023-04-15T05:37:30;8.80;99.90
23683;DHT22;24897;53.514;10.482;2023-04-15T05:40:14;8.80;99.90
23683;DHT22;24897;53.514;10.482;2023-04-15T05:42:58;8.80;99.90
23683;DHT22;24897;53.514;10.482;2023-04-15T05:45:42;8.80;99.90
23683;DHT22;24897;53.514;10.482;2023-04-15T05:48:26;8.80;99.90
23683;DHT22;24897;53.514;10.482;2023-04-15T05:51:10;8.80;99.90
23683;DHT22;24897;53.514;10.482;2023-04-15T05:53:54;8.90;99.90
23683;DHT22;24897;53.514;10.482;2023-04-15T05:56:39;8.80;99.90
23683;DHT22;24897;53.514;10.482;2023-04-15T05:59:23;8.70;99.90
23683;DHT22;24897;53.514;10.482;2023-04-15T06:02:09;8.70;99.90
23683;DHT22;24897;53.514;10.482;2023-04-15T06:04:53;8.80;99.90
23683;DHT22;24897;53.514;10.482;2023-04-15T06:07:37;8.70;99.90
23683;DHT22;24897;53.514;10.482;2023-04-15T06:10:22;8.70;99.90
23683;DHT22;24897;53.514;10.482;2023-04-15T06:13:06;8.70;99.90
23683;DHT22;24897;53.514;10.482;2023-04-15T06:15:50;8.60;99.90
23683;DHT22;24897;53.514;10.482;2023-04-15T06:18:35;8.70;99.90
23683;DHT22;24897;53.514;10.482;2023-04-15T06:21:19;8.70;99.90
23683;DHT22;24897;53.514;10.482;2023-04-15T06:24:04;8.60;99.90
23683;DHT22;24897;53.514;10.482;2023-04-15T06:26:48;8.60;99.90
23683;DHT22;24897;53.514;10.482;2023-04-15T06:29:32;8.70;99.90
23683;DHT22;24897;53.514;10.482;2023-04-15T06:32:16;8.60;99.90
23683;DHT22;24897;53.514;10.482;2023-04-15T06:35:01;8.50;99.90
23683;DHT22;24897;53.514;10.482;2023-04-15T06:37:45;8.60;99.90
23683;DHT22;24897;53.514;10.482;2023-04-15T06:40:29;8.50;99.90
23683;DHT22;24897;53.514;10.482;2023-04-15T06:43:14;8.60;99.90
23683;DHT22;24897;53.514;10.482;2023-04-15T06:45:58;8.60;99.90
23683;DHT22;24897;53.514;10.482;2023-04-15T06:48:42;8.60;99.90
23683;DHT22;24897;53.514;10.482;2023-04-15T06:51:27;8.70;99.90
23683;DHT22;24897;53.514;10.482;2023-04-15T06:54:11;8.80;99.90
23683;DHT22;24897;53.514;10.482;2023-04-15T06:56:56;8.70;99.90
23683;DHT22;24897;53.514;10.482;2023-04-15T06:59:40;8.80;99.90
23683;DHT22;24897;53.514;10.482;2023-04-15T07:02:26;8.80;99.90
23683;DHT22;24897;53.514;10.482;2023-04-15T07:05:10;8.70;99.90
23683;DHT22;24897;53.514;10.482;2023-04-15T07:07:54;8.80;99.90
23683;DHT22;24897;53.514;10.482;2023-04-15T07:10:38;8.90;99.90
23683;DHT22;24897;53.514;10.482;2023-04-15T07:13:22;9.20;99.90
23683;DHT22;24897;53.514;10.482;2023-04-15T07:16:06;9.10;99.90
23683;DHT22;24897;53.514;10.482;2023-04-15T07:18:50;9.10;99.90
23683;DHT22;24897;53.514;10.482;2023-04-15T07:21:35;9.20;99.90
23683;DHT22;24897;53.514;10.482;2023-04-15T07:24:19;9.10;99.90
23683;DHT22;24897;53.514;10.482;2023-04-15T07:27:03;9.30;99.90
23683;DHT22;24897;53.514;10.482;2023-04-15T07:29:47;9.30;99.90
23683;DHT22;24897;53.514;10.482;2023-04-15T07:32:32;9.20;99.90
23683;DHT22;24897;53.514;10.482;2023-04-15T07:35:16;9.10;99.90
23683;DHT22;24897;53.514;10.482;2023-04-15T07:38:00;9.10;99.90
23683;DHT22;24897;53.514;10.482;2023-04-15T07:40:45;9.20;99.90
23683;DHT22;24897;53.514;10.482;2023-04-15T07:43:30;9.30;99.90
23683;DHT22;24897;53.514;10.482;2023-04-15T07:46:14;9.40;99.90
23683;DHT22;24897;53.514;10.482;2023-04-15T07:48:58;9.40;99.90
23683;DHT22;24897;53.514;10.482;2023-04-15T07:51:43;9.60;99.90
23683;DHT22;24897;53.514;10.482;2023-04-15T07:54:28;9.50;99.90
23683;DHT22;24897;53.514;10.482;2023-04-15T07:57:12;9.70;99.90
23683;DHT22;24897;53.514;10.482;2023-04-15T07:59:56;9.70;99.90
23683;DHT22;24897;53.514;10.482;2023-04-15T08:02:41;9.70;99.90
23683;DHT22;24897;53.514;10.482;2023-04-15T08:05:26;9.60;99.90
23683;DHT22;24897;53.514;10.482;2023-04-15T08:08:10;9.50;99.90
23683;DHT22;24897;53.514;10.482;2023-04-15T08:10:54;9.60;99.90
23683;DHT22;24897;53.514;10.482;2023-04-15T08:13:38;9.60;99.90
23683;DHT22;24897;53.514;10.482;2023-04-15T08:16:25;9.70;99.90
23683;DHT22;24897;53.514;10.482;2023-04-15T08:19:10;9.70;99.90
23683;DHT22;24897;53.514;10.482;2023-04-15T08:21:55;9.70;99.90
23683;DHT22;24897;53.514;10.482;2023-04-15T08:24:40;9.80;99.90
23683;DHT22;24897;53.514;10.482;2023-04-15T08:27:24;9.90;99.90
23683;DHT22;24897;53.514;10.482;2023-04-15T08:30:08;10.10;99.90
23683;DHT22;24897;53.514;10.482;2023-04-15T08:32:52;10.20;99.90
23683;DHT22;24897;53.514;10.482;2023-04-15T08:35:36;10.20;99.90
23683;DHT22;24897;53.514;10.482;2023-04-15T08:38:21;10.20;99.90
23683;DHT22;24897;53.514;10.482;2023-04-15T08:41:18;10.20;99.90
23683;DHT22;24897;53.514;10.482;2023-04-15T08:44:04;10.10;99.90
23683;DHT22;24897;53.514;10.482;2023-04-15T08:46:49;10.10;99.90
23683;DHT22;24897;53.514;10.482;2023-04-15T08:49:39;10.00;99.90
23683;DHT22;24897;53.514;10.482;2023-04-15T08:52:26;10.10;99.90
23683;DHT22;24897;53.514;10.482;2023-04-15T08:55:12;10.20;99.90
23683;DHT22;24897;53.514;10.482;2023-04-15T08:57:57;10.30;99.90
23683;DHT22;24897;53.514;10.482;2023-04-15T09:00:42;10.40;99.90
23683;DHT22;24897;53.514;10.482;2023-04-15T09:03:27;10.60;99.90
23683;DHT22;24897;53.514;10.482;2023-04-15T09:06:11;10.80;99.90
23683;DHT22;24897;53.514;10.482;2023-04-15T09:08:56;11.00;99.90
23683;DHT22;24897;53.514;10.482;2023-04-15T09:11:40;11.00;99.90
23683;DHT22;24897;53.514;10.482;2023-04-15T09:14:28;11.20;99.90
23683;DHT22;24897;53.514;10.482;2023-04-15T09:17:18;11.20;99.90
23683;DHT22;24897;53.514;10.482;2023-04-15T09:20:09;11.30;99.90
23683;DHT22;24897;53.514;10.482;2023-04-15T09:22:53;11.40;99.90
23683;DHT22;24897;53.514;10.482;2023-04-15T09:25:41;11.20;99.90
23683;DHT22;24897;53.514;10.482;2023-04-15T09:28:25;11.00;99.90
23683;DHT22;24897;53.514;10.482;2023-04-15T09:31:10;11.10;99.90
23683;DHT22;24897;53.514;10.482;2023-04-15T09:33:55;11.30;99.90
23683;DHT22;24897;53.514;10.482;2023-04-15T09:39:49;11.40;99.90
23683;DHT22;24897;53.514;10.482;2023-04-15T09:42:33;11.50;99.90
23683;DHT22;24897;53.514;10.482;2023-04-15T09:45:18;11.70;99.90
23683;DHT22;24897;53.514;10.482;2023-04-15T09:48:26;12.10;99.90
23683;DHT22;24897;53.514;10.482;2023-04-15T09:51:11;11.80;99.90
23683;DHT22;24897;53.514;10.482;2023-04-15T09:53:55;11.90;99.90
23683;DHT22;24897;53.514;10.482;2023-04-15T09:56:39;12.10;99.90
23683;DHT22;24897;53.514;10.482;2023-04-15T09:59:26;12.10;99.90
23683;DHT22;24897;53.514;10.482;2023-04-15T10:02:11;12.20;99.90
23683;DHT22;24897;53.514;10.482;2023-04-15T10:04:56;12.50;99.90
23683;DHT22;24897;53.514;10.482;2023-04-15T10:07:41;13.20;99.90
23683;DHT22;24897;53.514;10.482;2023-04-15T10:10:26;13.30;99.90
23683;DHT22;24897;53.514;10.482;2023-04-15T10:13:12;13.10;99.90
23683;DHT22;24897;53.514;10.482;2023-04-15T10:15:59;13.00;99.90
23683;DHT22;24897;53.514;10.482;2023-04-15T10:18:45;12.80;99.90
23683;DHT22;24897;53.514;10.482;2023-04-15T10:21:29;12.60;99.90
23683;DHT22;24897;53.514;10.482;2023-04-15T10:24:15;12.60;99.90
23683;DHT22;24897;53.514;10.482;2023-04-15T10:27:00;12.60;99.90
23683;DHT22;24897;53.514;10.482;2023-04-15T10:29:50;12.60;99.90
23683;DHT22;24897;53.514;10.482;2023-04-15T10:32:34;12.60;99.90
23683;DHT22;24897;53.514;10.482;2023-04-15T10:35:20;12.60;99.90
23683;DHT22;24897;53.514;10.482;2023-04-15T10:38:40;12.70;99.90
23683;DHT22;24897;53.514;10.482;2023-04-15T10:41:28;13.20;99.90
23683;DHT22;24897;53.514;10.482;2023-04-15T10:44:17;13.80;99.90
23683;DHT22;24897;53.514;10.482;2023-04-15T10:47:06;14.10;99.90
23683;DHT22;24897;53.514;10.482;2023-04-15T10:49:58;14.00;99.90
23683;DHT22;24897;53.514;10.482;2023-04-15T10:52:43;13.80;99.90
23683;DHT22;24897;53.514;10.482;2023-04-15T10:55:31;13.70;99.90
23683;DHT22;24897;53.514;10.482;2023-04-15T10:58:15;13.60;99.90
23683;DHT22;24897;53.514;10.482;2023-04-15T11:01:01;13.70;99.90
23683;DHT22;24897;53.514;10.482;2023-04-15T11:03:46;13.70;99.90
23683;DHT22;24897;53.514;10.482;2023-04-15T11:06:43;13.80;99.90
23683;DHT22;24897;53.514;10.482;2023-04-15T11:09:32;13.90;99.90
23683;DHT22;24897;53.514;10.482;2023-04-15T11:12:18;14.50;99.90
23683;DHT22;24897;53.514;10.482;2023-04-15T11:21:05;14.60;99.90
23683;DHT22;24897;53.514;10.482;2023-04-15T11:23:49;14.40;99.90
23683;DHT22;24897;53.514;10.482;2023-04-15T11:26:33;14.20;99.90
23683;DHT22;24897;53.514;10.482;2023-04-15T11:29:18;13.90;99.90
23683;DHT22;24897;53.514;10.482;2023-04-15T11:32:08;13.80;99.90
23683;DHT22;24897;53.514;10.482;2023-04-15T11:34:52;13.80;99.90
23683;DHT22;24897;53.514;10.482;2023-04-15T11:37:37;13.90;99.90
23683;DHT22;24897;53.514;10.482;2023-04-15T11:40:22;14.00;99.90
23683;DHT22;24897;53.514;10.482;2023-04-15T11:43:13;13.80;99.90
23683;DHT22;24897;53.514;10.482;2023-04-15T11:46:01;13.80;99.90
23683;DHT22;24897;53.514;10.482;2023-04-15T11:48:46;14.20;99.90
23683;DHT22;24897;53.514;10.482;2023-04-15T11:51:34;14.40;99.90
23683;DHT22;24897;53.514;10.482;2023-04-15T11:54:18;14.90;99.90
23683;DHT22;24897;53.514;10.482;2023-04-15T11:57:03;15.50;99.90
23683;DHT22;24897;53.514;10.482;2023-04-15T11:59:47;15.60;99.90
23683;DHT22;24897;53.514;10.482;2023-04-15T12:02:31;15.30;99.90
23683;DHT22;24897;53.514;10.482;2023-04-15T12:05:16;15.20;99.90
23683;DHT22;24897;53.514;10.482;2023-04-15T12:08:00;14.80;99.90
23683;DHT22;24897;53.514;10.482;2023-04-15T12:10:44;14.60;99.90
23683;DHT22;24897;53.514;10.482;2023-04-15T12:13:28;14.30;99.90
23683;DHT22;24897;53.514;10.482;2023-04-15T12:16:16;14.20;99.90
23683;DHT22;24897;53.514;10.482;2023-04-15T12:19:04;14.10;99.90
23683;DHT22;24897;53.514;10.482;2023-04-15T12:21:49;13.70;99.90
23683;DHT22;24897;53.514;10.482;2023-04-15T12:24:35;13.60;99.90
23683;DHT22;24897;53.514;10.482;2023-04-15T12:27:19;13.80;99.90
23683;DHT22;24897;53.514;10.482;2023-04-15T12:30:04;13.90;99.90
23683;DHT22;24897;53.514;10.482;2023-04-15T12:32:51;13.90;99.90
23683;DHT22;24897;53.514;10.482;2023-04-15T12:35:38;14.00;99.90
23683;DHT22;24897;53.514;10.482;2023-04-15T12:38:22;13.90;99.90
23683;DHT22;24897;53.514;10.482;2023-04-15T12:41:06;13.90;99.90
23683;DHT22;24897;53.514;10.482;2023-04-15T12:43:50;14.00;99.90
23683;DHT22;24897;53.514;10.482;2023-04-15T12:46:34;14.20;99.90
23683;DHT22;24897;53.514;10.482;2023-04-15T12:49:22;14.50;99.90
23683;DHT22;24897;53.514;10.482;2023-04-15T12:52:07;14.50;99.90
23683;DHT22;24897;53.514;10.482;2023-04-15T12:54:52;14.50;99.90
23683;DHT22;24897;53.514;10.482;2023-04-15T12:57:36;14.30;99.90
23683;DHT22;24897;53.514;10.482;2023-04-15T13:00:20;14.30;99.90
23683;DHT22;24897;53.514;10.482;2023-04-15T13:03:05;14.10;99.90
23683;DHT22;24897;53.514;10.482;2023-04-15T13:05:49;14.20;99.90
23683;DHT22;24897;53.514;10.482;2023-04-15T13:08:33;14.20;99.90
23683;DHT22;24897;53.514;10.482;2023-04-15T13:11:18;14.00;99.90
23683;DHT22;24897;53.514;10.482;2023-04-15T13:14:05;14.10;99.90
23683;DHT22;24897;53.514;10.482;2023-04-15T13:16:49;14.40;99.90
23683;DHT22;24897;53.514;10.482;2023-04-15T13:19:34;14.30;99.90
23683;DHT22;24897;53.514;10.482;2023-04-15T13:22:19;14.40;99.90
23683;DHT22;24897;53.514;10.482;2023-04-15T13:25:04;14.60;99.90
23683;DHT22;24897;53.514;10.482;2023-04-15T13:27:49;14.80;99.90
23683;DHT22;24897;53.514;10.482;2023-04-15T13:30:33;14.80;99.90
23683;DHT22;24897;53.514;10.482;2023-04-15T13:33:17;14.90;99.90
23683;DHT22;24897;53.514;10.482;2023-04-15T13:36:01;15.00;99.90
23683;DHT22;24897;53.514;10.482;2023-04-15T13:38:46;15.10;99.90
23683;DHT22;24897;53.514;10.482;2023-04-15T13:41:30;15.20;99.90
23683;DHT22;24897;53.514;10.482;2023-04-15T13:44:15;15.00;99.90
23683;DHT22;24897;53.514;10.482;2023-04-15T13:46:59;14.80;99.90
23683;DHT22;24897;53.514;10.482;2023-04-15T13:49:44;14.80;99.90
23683;DHT22;24897;53.514;10.482;2023-04-15T13:52:29;15.10;99.90
23683;DHT22;24897;53.514;10.482;2023-04-15T13:55:13;15.10;99.90
23683;DHT22;24897;53.514;10.482;2023-04-15T13:57:57;15.00;99.90
23683;DHT22;24897;53.514;10.482;2023-04-15T14:00:41;14.90;99.90
23683;DHT22;24897;53.514;10.482;2023-04-15T14:03:25;14.90;99.90
23683;DHT22;24897;53.514;10.482;2023-04-15T14:06:09;14.80;99.90
23683;DHT22;24897;53.514;10.482;2023-04-15T14:08:54;14.60;99.90
23683;DHT22;24897;53.514;10.482;2023-04-15T14:11:38;14.60;99.90
23683;DHT22;24897;53.514;10.482;2023-04-15T14:14:23;14.60;99.90
23683;DHT22;24897;53.514;10.482;2023-04-15T14:17:08;14.60;99.90
23683;DHT22;24897;53.514;10.482;2023-04-15T14:19:52;14.70;99.90
23683;DHT22;24897;53.514;10.482;2023-04-15T14:22:36;14.70;99.90
23683;DHT22;24897;53.514;10.482;2023-04-15T14:25:21;14.60;99.90
23683;DHT22;24897;53.514;10.482;2023-04-15T14:28:05;14.60;99.90
23683;DHT22;24897;53.514;10.482;2023-04-15T14:30:49;14.50;99.90
23683;DHT22;24897;53.514;10.482;2023-04-15T14:33:33;14.50;99.90
23683;DHT22;24897;53.514;10.482;2023-04-15T14:36:17;14.50;99.90
23683;DHT22;24897;53.514;10.482;2023-04-15T14:39:02;14.60;99.90
23683;DHT22;24897;53.514;10.482;2023-04-15T14:41:48;14.90;99.90
23683;DHT22;24897;53.514;10.482;2023-04-15T14:44:32;15.10;99.90
23683;DHT22;24897;53.514;10.482;2023-04-15T14:47:17;15.10;99.90
23683;DHT22;24897;53.514;10.482;2023-04-15T14:50:01;15.00;99.90
23683;DHT22;24897;53.514;10.482;2023-04-15T14:52:46;15.00;99.90
23683;DHT22;24897;53.514;10.482;2023-04-15T14:55:30;15.00;99.90
23683;DHT22;24897;53.514;10.482;2023-04-15T14:58:14;14.90;99.90
23683;DHT22;24897;53.514;10.482;2023-04-15T15:00:59;14.80;99.90
23683;DHT22;24897;53.514;10.482;2023-04-15T15:03:44;14.80;99.90
23683;DHT22;24897;53.514;10.482;2023-04-15T15:06:28;14.80;99.90
23683;DHT22;24897;53.514;10.482;2023-04-15T15:09:12;14.70;99.90
23683;DHT22;24897;53.514;10.482;2023-04-15T15:11:56;14.50;99.90
23683;DHT22;24897;53.514;10.482;2023-04-15T15:14:41;14.50;99.90
23683;DHT22;24897;53.514;10.482;2023-04-15T15:17:25;14.30;99.90
23683;DHT22;24897;53.514;10.482;2023-04-15T15:20:09;14.10;99.90
23683;DHT22;24897;53.514;10.482;2023-04-15T15:22:54;14.00;99.90
23683;DHT22;24897;53.514;10.482;2023-04-15T15:25:38;13.90;99.90
23683;DHT22;24897;53.514;10.482;2023-04-15T15:28:23;14.00;99.90
23683;DHT22;24897;53.514;10.482;2023-04-15T15:31:07;14.10;99.90
23683;DHT22;24897;53.514;10.482;2023-04-15T15:33:50;14.00;99.90
23683;DHT22;24897;53.514;10.482;2023-04-15T15:36:36;13.60;99.90
23683;DHT22;24897;53.514;10.482;2023-04-15T15:39:24;13.50;99.90
23683;DHT22;24897;53.514;10.482;2023-04-15T15:42:08;13.50;99.90
23683;DHT22;24897;53.514;10.482;2023-04-15T15:44:52;13.40;99.90
23683;DHT22;24897;53.514;10.482;2023-04-15T15:47:36;13.40;99.90
23683;DHT22;24897;53.514;10.482;2023-04-15T15:50:20;13.30;99.90
23683;DHT22;24897;53.514;10.482;2023-04-15T15:53:04;13.10;99.90
23683;DHT22;24897;53.514;10.482;2023-04-15T15:55:48;13.10;99.90
23683;DHT22;24897;53.514;10.482;2023-04-15T15:58:33;13.10;99.90
23683;DHT22;24897;53.514;10.482;2023-04-15T16:01:17;13.00;99.90
23683;DHT22;24897;53.514;10.482;2023-04-15T16:04:01;13.00;99.90
23683;DHT22;24897;53.514;10.482;2023-04-15T16:06:46;12.70;99.90
23683;DHT22;24897;53.514;10.482;2023-04-15T16:09:31;12.70;99.90
23683;DHT22;24897;53.514;10.482;2023-04-15T16:12:15;12.60;99.90
23683;DHT22;24897;53.514;10.482;2023-04-15T16:14:59;12.40;99.90
23683;DHT22;24897;53.514;10.482;2023-04-15T16:17:44;12.40;99.90
23683;DHT22;24897;53.514;10.482;2023-04-15T16:20:29;12.40;99.90
23683;DHT22;24897;53.514;10.482;2023-04-15T16:23:16;12.40;99.90
23683;DHT22;24897;53.514;10.482;2023-04-15T16:26:00;12.40;99.90
23683;DHT22;24897;53.514;10.482;2023-04-15T16:28:44;12.60;99.90
23683;DHT22;24897;53.514;10.482;2023-04-15T16:31:29;12.40;99.90
23683;DHT22;24897;53.514;10.482;2023-04-15T16:34:14;12.40;99.90
23683;DHT22;24897;53.514;10.482;2023-04-15T16:36:59;12.20;99.90
23683;DHT22;24897;53.514;10.482;2023-04-15T16:39:43;12.10;99.90
23683;DHT22;24897;53.514;10.482;2023-04-15T16:42:28;12.00;99.90
23683;DHT22;24897;53.514;10.482;2023-04-15T16:45:13;12.00;99.90
23683;DHT22;24897;53.514;10.482;2023-04-15T16:47:57;11.90;99.90
23683;DHT22;24897;53.514;10.482;2023-04-15T16:50:40;11.70;99.90
23683;DHT22;24897;53.514;10.482;2023-04-15T16:53:25;11.60;99.90
23683;DHT22;24897;53.514;10.482;2023-04-15T16:56:09;11.60;99.90
23683;DHT22;24897;53.514;10.482;2023-04-15T16:58:53;11.60;99.90
23683;DHT22;24897;53.514;10.482;2023-04-15T17:01:38;11.70;99.90
23683;DHT22;24897;53.514;10.482;2023-04-15T17:04:22;11.60;99.90
23683;DHT22;24897;53.514;10.482;2023-04-15T17:07:06;11.60;99.90
23683;DHT22;24897;53.514;10.482;2023-04-15T17:09:51;11.60;99.90
23683;DHT22;24897;53.514;10.482;2023-04-15T17:12:35;11.60;99.90
23683;DHT22;24897;53.514;10.482;2023-04-15T17:15:19;11.60;99.90
23683;DHT22;24897;53.514;10.482;2023-04-15T17:18:04;11.40;99.90
23683;DHT22;24897;53.514;10.482;2023-04-15T17:20:48;11.20;99.90
23683;DHT22;24897;53.514;10.482;2023-04-15T17:23:35;11.20;99.90